Flight Track Log - Related Links

Times and Time Zones

All times are in EST time to prevent confusion due to time zone crossing. See the FSR411 flight status page for this flight to view local times or setup timezone preferences in your user account.

Time Position Orientation Groundspeed Altitude Reporting Facility
EST Latitude Longitude Course Direction KTS MPH feet Rate Location/Type
Sat 11:23:23 AM 26.2939 -81.7250 343° North 269 310 3,800  Level Miami Center
Sat 11:24:23 AM 26.2869 -81.8011 264° West 258 297 7,300 2,950 Climbing Miami Center
Sat 11:25:23 AM 26.2675 -81.8814 255° West 281 323 9,700 1,350 Climbing Miami Center
Sat 11:26:23 AM 26.2433 -81.9797 255° West 301 346 10,000 1,600 Climbing Miami Center
Sat 11:27:00 AM 26.8080 -82.0387 336° Northwest  Level Estimated
Sat 11:27:23 AM 26.2211 -82.0783 256° West 333 383 12,900  Level Miami Center
Sat 11:28:00 AM 26.9172 -82.0828 343° North  Level Estimated
Sat 11:28:23 AM 26.2217 -82.1781 270° West 333 383 14,900  Level Miami Center
Sat 11:29:23 AM 26.2469 -82.2833 285° West 328 377 17,400 2,150 Climbing Miami Center
Sat 11:30:23 AM 26.2847 -82.3869 292° West 344 396 19,200 1,900 Climbing Miami Center
Sat 11:31:23 AM 26.3786 -82.4444 331° Northwest 353 406 21,200 1,950 Climbing Miami Center
Sat 11:32:23 AM 26.4836 -82.4842 341° North 358 412 23,100 2,000 Climbing Miami Center
Sat 11:33:23 AM 26.5903 -82.5311 339° North 387 445 25,200 2,050 Climbing Miami Center
Sat 11:34:23 AM 26.6992 -82.5736 341° North 408 470 27,200 2,100 Climbing Miami Center
Sat 11:35:23 AM 26.8078 -82.6231 338° Northwest 414 476 29,400 2,050 Climbing Miami Center
Sat 11:36:23 AM 26.9186 -82.6706 339° North 425 489 31,300 1,750 Climbing Miami Center
Sat 11:37:23 AM 27.0317 -82.7181 339° North 425 489 32,900 1,600 Climbing Miami Center
Sat 11:38:23 AM 27.1442 -82.7681 338° Northwest 431 496 34,500 1,500 Climbing Miami Center
Sat 11:39:23 AM 27.2447 -82.8106 339° North 424 488 35,900 1,400 Climbing Miami Center
Sat 11:40:23 AM 27.3758 -82.8686 339° North 440 506 37,300 1,050 Climbing Miami Center
Sat 11:41:23 AM 27.4947 -82.9217 338° Northwest 450 518 38,000 350 Climbing Miami Center
Sat 11:42:23 AM 27.6033 -82.9697 339° North 455 524 38,000 556 Level Miami Center
Sat 11:44:48 AM 27.9181 -83.1086 339° North 488 562 39,900 585 Climbing Jacksonville Center
Sat 11:45:48 AM 28.0494 -83.1419 347° North 475 547 40,000 50 Climbing Jacksonville Center
Sat 11:46:48 AM 28.1683 -83.1422 360° North 471 542 40,000  Level Jacksonville Center
Sat 11:47:48 AM 28.2956 -83.1825 344° North 476 548 40,000  Level Jacksonville Center
Sat 11:48:48 AM 28.4292 -83.2372 340° North 470 541 40,000  Level Jacksonville Center
Sat 11:49:48 AM 28.5542 -83.2872 341° North 465 535 40,000  Level Jacksonville Center
Sat 11:50:48 AM 28.6814 -83.3350 342° North 465 535 40,000  Level Jacksonville Center
Sat 11:51:48 AM 28.8083 -83.3808 342° North 470 541 40,000  Level Jacksonville Center
Sat 11:52:48 AM 28.9336 -83.4311 341° North 475 547 40,000  Level Jacksonville Center
Sat 11:53:48 AM 29.0606 -83.4794 342° North 475 547 40,000  Level Jacksonville Center
Sat 11:54:48 AM 29.1856 -83.5278 341° North 475 547 40,000  Level Jacksonville Center
Sat 11:55:48 AM 29.3106 -83.5736 342° North 475 547 40,000  Level Jacksonville Center
Sat 11:56:48 AM 29.4356 -83.6222 341° North 475 547 40,000  Level Jacksonville Center
Sat 11:57:48 AM 29.5606 -83.6708 341° North 470 541 40,000  Level Jacksonville Center
Sat 11:58:48 AM 29.6856 -83.7197 341° North 470 541 40,000  Level Jacksonville Center
Sat 11:59:48 AM 29.7833 -83.7564 342° North 465 535 40,000  Level Jacksonville Center
Sat 12:00:48 PM 29.9186 -83.8103 341° North 465 535 40,000  Level Jacksonville Center
Sat 12:01:48 PM 30.0436 -83.8597 341° North 465 535 40,000  Level Jacksonville Center
Sat 12:02:48 PM 30.1706 -83.9064 342° North 465 535 40,000  Level Jacksonville Center
Sat 12:03:48 PM 30.2914 -83.9533 341° North 465 535 40,000  Level Jacksonville Center
Sat 12:04:48 PM 30.4142 -84.0056 340° North 465 535 40,000  Level Jacksonville Center
Sat 12:05:48 PM 30.5514 -84.0578 342° North 465 535 40,000  Level Jacksonville Center
Sat 12:06:48 PM 30.6492 -84.0950 342° North 465 535 40,000  Level Jacksonville Center
Sat 12:07:48 PM 30.7844 -84.1500 341° North 465 535 40,000  Level Jacksonville Center
Sat 12:08:48 PM 30.9072 -84.1978 342° North 465 535 40,000  Level Jacksonville Center
Sat 12:09:48 PM 31.0319 -84.2478 341° North 465 535 40,000  Level Jacksonville Center
Sat 12:10:48 PM 31.1544 -84.2981 341° North 465 535 40,000  Level Jacksonville Center
Sat 12:11:49 PM 31.2772 -84.3461 342° North 465 535 40,000  Level Jacksonville Center
Sat 12:13:27 PM 31.4767 -84.4261 341° North 441 507 40,000  Level Atlanta Center
Sat 12:14:27 PM 31.6019 -84.4778 341° North 453 521 40,000  Level Atlanta Center
Sat 12:15:27 PM 31.7247 -84.5272 341° North 458 527 40,000  Level Atlanta Center
Sat 12:16:27 PM 31.8497 -84.5767 341° North 468 539 40,000  Level Atlanta Center
Sat 12:17:27 PM 31.9728 -84.6264 341° North 468 539 40,000  Level Atlanta Center
Sat 12:18:27 PM 32.0956 -84.6786 340° North 468 539 40,000  Level Atlanta Center
Sat 12:19:27 PM 32.2186 -84.7286 341° North 468 539 40,000  Level Atlanta Center
Sat 12:20:27 PM 32.3414 -84.7789 341° North 468 539 40,000  Level Atlanta Center
Sat 12:21:27 PM 32.4622 -84.8292 341° North 463 533 40,000  Level Atlanta Center
Sat 12:22:27 PM 32.5911 -84.8769 343° North 463 533 40,000  Level Atlanta Center
Sat 12:23:27 PM 32.7203 -84.9325 340° North 468 539 40,000  Level Atlanta Center
Sat 12:24:27 PM 32.8408 -84.9906 338° Northwest 475 547 40,000  Level Atlanta Center
Sat 12:25:27 PM 32.9617 -85.0367 342° North 470 541 40,000  Level Atlanta Center
Sat 12:26:27 PM 33.0842 -85.0900 340° North 465 535 40,000  Level Atlanta Center
Sat 12:27:27 PM 33.1944 -85.1361 341° North 465 535 40,000  Level Atlanta Center
Sat 12:28:27 PM 33.3172 -85.1872 341° North 465 535 40,000  Level Atlanta Center
Sat 12:29:27 PM 33.4419 -85.2414 340° North 471 542 40,000  Level Atlanta Center
Sat 12:30:27 PM 33.5625 -85.2878 342° North 465 535 40,000  Level Atlanta Center
Sat 12:31:27 PM 33.6956 -85.3447 340° North 459 528 40,000  Level Atlanta Center
Sat 12:32:27 PM 33.8161 -85.3964 340° North 459 528 40,000  Level Atlanta Center
Sat 12:33:27 PM 33.9364 -85.4483 340° North 454 522 40,000  Level Atlanta Center
Sat 12:34:27 PM 34.0550 -85.4956 342° North 454 522 40,000  Level Atlanta Center
Sat 12:35:27 PM 34.1733 -85.5478 340° North 454 522 40,000  Level Atlanta Center
Sat 12:36:27 PM 34.2936 -85.5978 341° North 449 517 40,000  Level Atlanta Center
Sat 12:37:27 PM 34.3994 -85.6450 340° North 449 517 40,000  Level Atlanta Center
Sat 12:38:27 PM 34.5178 -85.6975 340° North 444 511 40,000  Level Atlanta Center
Sat 12:39:27 PM 34.6381 -85.7481 341° North 449 517 40,000  Level Atlanta Center
Sat 12:40:27 PM 34.7583 -85.8011 340° North 449 517 40,000  Level Atlanta Center
Sat 12:41:27 PM 34.8911 -85.8569 341° North 449 517 40,000  Level Atlanta Center
Sat 12:42:27 PM 34.9969 -85.9075 339° North 449 517 40,000  Level Atlanta Center
Sat 12:44:30 PM 35.2406 -86.0100 341° North 455 524 40,000  Level Memphis Center
Sat 12:45:32 PM 35.3581 -86.0625 340° North 451 519 40,000  Level Memphis Center
Sat 12:46:34 PM 35.4772 -86.1147 340° North 451 519 40,000  Level Memphis Center
Sat 12:47:36 PM 35.6189 -86.1775 340° North 450 518 40,000  Level Memphis Center
Sat 12:48:38 PM 35.7372 -86.2311 340° North 452 520 40,000  Level Memphis Center
Sat 12:49:40 PM 35.8561 -86.2842 340° North 451 519 40,000  Level Memphis Center
Sat 12:50:42 PM 35.9761 -86.3378 340° North 452 520 40,000  Level Memphis Center
Sat 12:51:44 PM 36.0936 -86.3917 340° North 450 518 40,000  Level Memphis Center
Sat 12:52:46 PM 36.2097 -86.4439 340° North 445 512 40,000  Level Memphis Center
Sat 12:53:48 PM 36.3442 -86.5050 340° North 441 507 40,000  Level Memphis Center
Sat 12:54:50 PM 36.4600 -86.5583 340° North 444 511 40,000  Level Memphis Center
Sat 12:55:52 PM 36.5767 -86.6103 340° North 446 513 40,000  Level Memphis Center
Sat 12:56:54 PM 36.6936 -86.6650 339° North 446 513 40,000  Level Memphis Center
Sat 12:57:56 PM 36.8122 -86.7186 340° North 449 517 40,000  Level Memphis Center
Sat 12:58:53 PM 36.9175 -86.7967 329° Northwest 449 517 40,000  Level Indianapolis Center
Sat 01:00:00 PM 37.0219 -86.9108 319° Northwest 429 494 40,000  Level Memphis Center
Sat 01:01:02 PM 37.1142 -87.0083 320° Northwest 430 495 40,000 -51 Level Memphis Center
Sat 01:01:58 PM 37.1900 -87.0867 321° Northwest 427 491 39,900 -564 Descending Indianapolis Center
Sat 01:02:59 PM 37.2822 -87.1831 320° Northwest 428 493 38,900 -1,220 Descending Indianapolis Center
Sat 01:04:01 PM 37.3894 -87.2989 319° Northwest 434 499 37,400 -1,645 Descending Indianapolis Center
Sat 01:05:03 PM 37.4800 -87.4000 318° Northwest 431 496 35,500 -1,561 Descending Indianapolis Center
Sat 01:06:04 PM 37.5811 -87.4878 325° Northwest 444 511 34,200 -1,268 Descending Indianapolis Center
Sat 01:07:06 PM 37.7039 -87.5278 346° North 452 520 32,900 -1,210 Descending Indianapolis Center
Sat 01:08:08 PM 37.8283 -87.5669 346° North 457 526 31,700 -1,016 Descending Indianapolis Center
Sat 01:09:10 PM 37.9519 -87.6058 346° North 453 521 30,800 -927 Descending Indianapolis Center
Sat 01:10:11 PM 38.0758 -87.6439 346° North 453 521 29,800 -976 Descending Indianapolis Center
Sat 01:11:13 PM 38.2008 -87.6836 346° North 455 524 28,800 -1,016 Descending Indianapolis Center
Sat 01:12:15 PM 38.3250 -87.7225 346° North 454 522 27,700 -1,415 Descending Indianapolis Center
Sat 01:13:16 PM 38.4469 -87.7606 346° North 448 516 25,900 -1,659 Descending Indianapolis Center
Sat 01:14:18 PM 38.5650 -87.7994 346° North 437 503 24,300 -1,548 Descending Indianapolis Center
Sat 01:15:20 PM 38.6831 -87.8367 346° North 434 499 22,700 -1,707 Descending Indianapolis Center
Sat 01:16:21 PM 38.8211 -87.8803 346° North 424 488 20,800 -1,707 Descending Indianapolis Center
Sat 01:17:23 PM 38.9336 -87.9156 346° North 415 478 19,200 -1,452 Descending Indianapolis Center
Sat 01:18:25 PM 39.0428 -87.9517 346° North 404 465 17,800 -1,415 Descending Indianapolis Center
Sat 01:19:26 PM 39.1506 -87.9872 346° North 400 460 16,300 -1,422 Descending Indianapolis Center
Sat 01:20:40 PM 39.2775 -88.0272 346° North 392 451 14,600 -1,368 Descending Indianapolis Center
Sat 01:21:42 PM 39.3800 -88.0608 346° North 378 435 13,200 -1,366 Descending Indianapolis Center
Sat 01:22:43 PM 39.4772 -88.0919 346° North 366 421 11,800 -1,366 Descending Indianapolis Center
Sat 01:23:45 PM 39.5647 -88.1217 345° North 340 391 10,400 -1,415 Descending Indianapolis Center
Sat 01:24:46 PM 39.6428 -88.1331 354° North 315 362 8,900 -1,220 Descending Indianapolis Center
Sat 01:25:48 PM 39.7192 -88.1225 North 293 337 7,900 -1,210 Descending Indianapolis Center
Sat 01:26:50 PM 39.8036 -88.1103 North 266 306 6,400 -966 Descending Indianapolis Center
Sat 01:28:17 PM 39.9067 -88.1083 North 259 298 5,500 -621 Descending Chicago Center
Sat 01:30:00 PM 40.0333 -88.2667 346° North  Level FlightAware Approximate
Sat 01:37:00 PM 40.0388 -88.2778 346° North  Level Estimated
Sat 01:38:00 PM 40.0388 -88.2778 346° North  Level Estimated
Sat 01:39:00 PM 40.0388 -88.2778 346° North  Level Estimated

Login

Don't have an account? Register now (free) for customized features, flight alerts, and more!